sensor_id;sensor_type;location;lat;lon;timestamp;P1;durP1;ratioP1;P2;durP2;ratioP2
11877;SDS011;5998;42.676;23.268;2022-09-16T00:01:37;11.00;;;3.47;;
11877;SDS011;5998;42.676;23.268;2022-09-16T00:04:04;10.50;;;3.63;;
11877;SDS011;5998;42.676;23.268;2022-09-16T00:06:32;7.23;;;3.30;;
11877;SDS011;5998;42.676;23.268;2022-09-16T00:08:59;7.90;;;3.60;;
11877;SDS011;5998;42.676;23.268;2022-09-16T00:11:26;11.17;;;3.53;;
11877;SDS011;5998;42.676;23.268;2022-09-16T00:13:53;8.47;;;3.60;;
11877;SDS011;5998;42.676;23.268;2022-09-16T00:16:21;8.60;;;3.50;;
11877;SDS011;5998;42.676;23.268;2022-09-16T00:18:52;10.30;;;3.53;;
11877;SDS011;5998;42.676;23.268;2022-09-16T00:21:20;8.23;;;3.23;;
11877;SDS011;5998;42.676;23.268;2022-09-16T00:23:49;5.70;;;3.60;;
11877;SDS011;5998;42.676;23.268;2022-09-16T00:26:16;12.83;;;3.67;;
11877;SDS011;5998;42.676;23.268;2022-09-16T00:28:43;7.70;;;3.27;;
11877;SDS011;5998;42.676;23.268;2022-09-16T00:31:12;9.17;;;3.23;;
11877;SDS011;5998;42.676;23.268;2022-09-16T00:33:39;8.90;;;3.53;;
11877;SDS011;5998;42.676;23.268;2022-09-16T00:36:06;10.27;;;3.70;;
11877;SDS011;5998;42.676;23.268;2022-09-16T00:38:34;13.00;;;3.40;;
11877;SDS011;5998;42.676;23.268;2022-09-16T00:41:03;9.43;;;3.90;;
11877;SDS011;5998;42.676;23.268;2022-09-16T00:43:44;17.97;;;4.60;;
11877;SDS011;5998;42.676;23.268;2022-09-16T00:46:13;10.17;;;4.40;;
11877;SDS011;5998;42.676;23.268;2022-09-16T00:48:41;8.50;;;3.77;;
11877;SDS011;5998;42.676;23.268;2022-09-16T00:51:08;8.93;;;3.60;;
11877;SDS011;5998;42.676;23.268;2022-09-16T00:53:39;8.53;;;3.40;;
11877;SDS011;5998;42.676;23.268;2022-09-16T00:56:11;11.63;;;3.50;;
11877;SDS011;5998;42.676;23.268;2022-09-16T00:58:40;6.47;;;3.33;;
11877;SDS011;5998;42.676;23.268;2022-09-16T01:01:09;9.30;;;4.10;;
11877;SDS011;5998;42.676;23.268;2022-09-16T01:03:37;8.80;;;3.73;;
11877;SDS011;5998;42.676;23.268;2022-09-16T01:06:10;13.50;;;4.13;;
11877;SDS011;5998;42.676;23.268;2022-09-16T01:08:38;10.20;;;4.30;;
11877;SDS011;5998;42.676;23.268;2022-09-16T01:11:07;9.00;;;3.83;;
11877;SDS011;5998;42.676;23.268;2022-09-16T01:13:35;10.10;;;3.90;;
11877;SDS011;5998;42.676;23.268;2022-09-16T01:16:04;7.73;;;3.60;;
11877;SDS011;5998;42.676;23.268;2022-09-16T01:18:35;8.53;;;3.30;;
11877;SDS011;5998;42.676;23.268;2022-09-16T01:21:14;6.97;;;3.70;;
11877;SDS011;5998;42.676;23.268;2022-09-16T01:23:53;11.83;;;3.60;;
11877;SDS011;5998;42.676;23.268;2022-09-16T01:30:07;12.27;;;4.23;;
11877;SDS011;5998;42.676;23.268;2022-09-16T01:33:00;8.47;;;3.63;;
11877;SDS011;5998;42.676;23.268;2022-09-16T01:35:43;9.87;;;3.80;;
11877;SDS011;5998;42.676;23.268;2022-09-16T01:38:25;7.37;;;3.27;;
11877;SDS011;5998;42.676;23.268;2022-09-16T01:41:05;8.50;;;3.80;;
11877;SDS011;5998;42.676;23.268;2022-09-16T01:43:39;6.10;;;3.07;;
11877;SDS011;5998;42.676;23.268;2022-09-16T01:46:13;7.37;;;3.40;;
11877;SDS011;5998;42.676;23.268;2022-09-16T01:48:49;12.40;;;6.10;;
11877;SDS011;5998;42.676;23.268;2022-09-16T01:51:23;7.50;;;4.10;;
11877;SDS011;5998;42.676;23.268;2022-09-16T01:53:59;8.07;;;3.20;;
11877;SDS011;5998;42.676;23.268;2022-09-16T01:56:34;11.13;;;3.27;;
11877;SDS011;5998;42.676;23.268;2022-09-16T01:59:07;9.30;;;3.30;;
11877;SDS011;5998;42.676;23.268;2022-09-16T02:01:37;8.47;;;3.30;;
11877;SDS011;5998;42.676;23.268;2022-09-16T02:04:13;5.43;;;3.43;;
11877;SDS011;5998;42.676;23.268;2022-09-16T02:06:43;12.60;;;3.33;;
11877;SDS011;5998;42.676;23.268;2022-09-16T02:09:14;4.43;;;2.60;;
11877;SDS011;5998;42.676;23.268;2022-09-16T02:11:45;9.50;;;4.03;;
11877;SDS011;5998;42.676;23.268;2022-09-16T02:14:16;6.70;;;2.87;;
11877;SDS011;5998;42.676;23.268;2022-09-16T02:16:47;8.47;;;2.63;;
11877;SDS011;5998;42.676;23.268;2022-09-16T02:19:19;11.07;;;3.50;;
11877;SDS011;5998;42.676;23.268;2022-09-16T02:21:48;6.57;;;2.90;;
11877;SDS011;5998;42.676;23.268;2022-09-16T02:24:17;6.37;;;2.90;;
11877;SDS011;5998;42.676;23.268;2022-09-16T02:26:47;9.00;;;3.20;;
11877;SDS011;5998;42.676;23.268;2022-09-16T02:29:19;11.67;;;3.30;;
11877;SDS011;5998;42.676;23.268;2022-09-16T02:31:49;8.30;;;3.57;;
11877;SDS011;5998;42.676;23.268;2022-09-16T02:34:20;10.50;;;3.00;;
11877;SDS011;5998;42.676;23.268;2022-09-16T02:36:51;11.67;;;3.20;;
11877;SDS011;5998;42.676;23.268;2022-09-16T02:39:21;8.43;;;2.83;;
11877;SDS011;5998;42.676;23.268;2022-09-16T02:41:54;10.83;;;2.93;;
11877;SDS011;5998;42.676;23.268;2022-09-16T02:44:22;14.10;;;3.63;;
11877;SDS011;5998;42.676;23.268;2022-09-16T02:46:52;9.27;;;3.50;;
11877;SDS011;5998;42.676;23.268;2022-09-16T02:49:27;9.97;;;3.63;;
11877;SDS011;5998;42.676;23.268;2022-09-16T02:52:03;7.50;;;2.80;;
11877;SDS011;5998;42.676;23.268;2022-09-16T02:54:38;11.37;;;3.10;;
11877;SDS011;5998;42.676;23.268;2022-09-16T02:57:11;6.83;;;2.70;;
11877;SDS011;5998;42.676;23.268;2022-09-16T02:59:41;11.40;;;2.77;;
11877;SDS011;5998;42.676;23.268;2022-09-16T03:02:08;11.50;;;3.40;;
11877;SDS011;5998;42.676;23.268;2022-09-16T03:04:36;11.83;;;3.10;;
11877;SDS011;5998;42.676;23.268;2022-09-16T03:07:03;11.73;;;3.00;;
11877;SDS011;5998;42.676;23.268;2022-09-16T03:09:33;8.37;;;3.37;;
11877;SDS011;5998;42.676;23.268;2022-09-16T03:12:06;7.47;;;3.00;;
11877;SDS011;5998;42.676;23.268;2022-09-16T03:14:48;10.03;;;3.93;;
11877;SDS011;5998;42.676;23.268;2022-09-16T03:17:35;11.60;;;3.43;;
11877;SDS011;5998;42.676;23.268;2022-09-16T03:20:20;7.83;;;2.73;;
11877;SDS011;5998;42.676;23.268;2022-09-16T03:22:54;7.47;;;3.00;;
11877;SDS011;5998;42.676;23.268;2022-09-16T03:25:33;7.60;;;3.03;;
11877;SDS011;5998;42.676;23.268;2022-09-16T03:28:08;9.70;;;2.90;;
11877;SDS011;5998;42.676;23.268;2022-09-16T03:30:41;9.67;;;2.93;;
11877;SDS011;5998;42.676;23.268;2022-09-16T03:33:15;8.87;;;2.90;;
11877;SDS011;5998;42.676;23.268;2022-09-16T03:35:48;6.43;;;3.30;;
11877;SDS011;5998;42.676;23.268;2022-09-16T03:38:17;9.27;;;2.73;;
11877;SDS011;5998;42.676;23.268;2022-09-16T03:40:45;8.53;;;3.90;;
11877;SDS011;5998;42.676;23.268;2022-09-16T03:43:14;9.17;;;3.57;;
11877;SDS011;5998;42.676;23.268;2022-09-16T03:45:41;8.83;;;3.10;;
11877;SDS011;5998;42.676;23.268;2022-09-16T03:48:09;13.30;;;4.20;;
11877;SDS011;5998;42.676;23.268;2022-09-16T03:50:37;11.60;;;4.23;;
11877;SDS011;5998;42.676;23.268;2022-09-16T03:53:05;12.00;;;3.80;;
11877;SDS011;5998;42.676;23.268;2022-09-16T03:55:31;19.53;;;4.50;;
11877;SDS011;5998;42.676;23.268;2022-09-16T03:57:58;10.77;;;4.13;;
11877;SDS011;5998;42.676;23.268;2022-09-16T04:00:25;12.40;;;4.00;;
11877;SDS011;5998;42.676;23.268;2022-09-16T04:02:53;11.90;;;3.97;;
11877;SDS011;5998;42.676;23.268;2022-09-16T04:05:19;7.57;;;3.43;;
11877;SDS011;5998;42.676;23.268;2022-09-16T04:07:47;7.90;;;3.70;;
11877;SDS011;5998;42.676;23.268;2022-09-16T04:10:15;13.23;;;3.90;;
11877;SDS011;5998;42.676;23.268;2022-09-16T04:12:42;11.53;;;4.13;;
11877;SDS011;5998;42.676;23.268;2022-09-16T04:15:09;10.23;;;3.33;;
11877;SDS011;5998;42.676;23.268;2022-09-16T04:17:36;7.53;;;3.23;;
11877;SDS011;5998;42.676;23.268;2022-09-16T04:20:03;12.33;;;3.47;;
11877;SDS011;5998;42.676;23.268;2022-09-16T04:22:31;8.40;;;3.23;;
11877;SDS011;5998;42.676;23.268;2022-09-16T04:24:58;23.83;;;19.70;;
11877;SDS011;5998;42.676;23.268;2022-09-16T04:27:26;8.63;;;4.50;;
11877;SDS011;5998;42.676;23.268;2022-09-16T04:29:53;8.20;;;3.53;;
11877;SDS011;5998;42.676;23.268;2022-09-16T04:32:20;12.13;;;5.30;;
11877;SDS011;5998;42.676;23.268;2022-09-16T04:34:47;14.87;;;4.23;;
11877;SDS011;5998;42.676;23.268;2022-09-16T04:37:14;7.37;;;3.60;;
11877;SDS011;5998;42.676;23.268;2022-09-16T04:39:40;11.77;;;3.30;;
11877;SDS011;5998;42.676;23.268;2022-09-16T04:42:07;17.87;;;4.77;;
11877;SDS011;5998;42.676;23.268;2022-09-16T04:44:37;30.93;;;5.47;;
11877;SDS011;5998;42.676;23.268;2022-09-16T04:47:04;35.47;;;7.10;;
11877;SDS011;5998;42.676;23.268;2022-09-16T04:49:31;12.23;;;4.17;;
11877;SDS011;5998;42.676;23.268;2022-09-16T04:51:58;17.00;;;4.00;;
11877;SDS011;5998;42.676;23.268;2022-09-16T04:54:24;16.43;;;4.60;;
11877;SDS011;5998;42.676;23.268;2022-09-16T04:56:51;17.97;;;5.30;;
11877;SDS011;5998;42.676;23.268;2022-09-16T04:59:18;28.93;;;5.80;;
11877;SDS011;5998;42.676;23.268;2022-09-16T05:01:47;18.30;;;5.43;;
11877;SDS011;5998;42.676;23.268;2022-09-16T05:04:14;16.27;;;4.80;;
11877;SDS011;5998;42.676;23.268;2022-09-16T05:06:40;17.23;;;4.70;;
11877;SDS011;5998;42.676;23.268;2022-09-16T05:09:08;13.50;;;4.00;;
11877;SDS011;5998;42.676;23.268;2022-09-16T05:11:37;14.00;;;4.20;;
11877;SDS011;5998;42.676;23.268;2022-09-16T05:14:06;12.00;;;4.00;;
11877;SDS011;5998;42.676;23.268;2022-09-16T05:16:34;16.27;;;4.50;;
11877;SDS011;5998;42.676;23.268;2022-09-16T05:19:02;13.80;;;3.83;;
11877;SDS011;5998;42.676;23.268;2022-09-16T05:21:31;13.53;;;3.90;;
11877;SDS011;5998;42.676;23.268;2022-09-16T05:23:59;13.83;;;4.40;;
11877;SDS011;5998;42.676;23.268;2022-09-16T05:26:28;20.40;;;5.23;;
11877;SDS011;5998;42.676;23.268;2022-09-16T05:28:59;22.50;;;5.73;;
11877;SDS011;5998;42.676;23.268;2022-09-16T05:31:28;21.60;;;5.57;;
11877;SDS011;5998;42.676;23.268;2022-09-16T05:33:57;14.90;;;4.53;;
11877;SDS011;5998;42.676;23.268;2022-09-16T05:36:27;18.20;;;4.53;;
11877;SDS011;5998;42.676;23.268;2022-09-16T05:38:56;16.23;;;6.20;;
11877;SDS011;5998;42.676;23.268;2022-09-16T05:41:23;20.60;;;7.40;;
11877;SDS011;5998;42.676;23.268;2022-09-16T05:43:50;30.97;;;19.00;;
11877;SDS011;5998;42.676;23.268;2022-09-16T05:46:17;26.47;;;6.63;;
11877;SDS011;5998;42.676;23.268;2022-09-16T05:48:45;15.23;;;8.77;;
11877;SDS011;5998;42.676;23.268;2022-09-16T05:51:13;10.27;;;5.30;;
11877;SDS011;5998;42.676;23.268;2022-09-16T05:53:42;16.13;;;5.00;;
11877;SDS011;5998;42.676;23.268;2022-09-16T05:56:10;16.13;;;4.50;;
11877;SDS011;5998;42.676;23.268;2022-09-16T05:58:39;16.93;;;4.87;;
11877;SDS011;5998;42.676;23.268;2022-09-16T06:01:08;13.13;;;5.03;;
11877;SDS011;5998;42.676;23.268;2022-09-16T06:03:36;13.00;;;4.80;;
11877;SDS011;5998;42.676;23.268;2022-09-16T06:06:04;13.80;;;3.47;;
11877;SDS011;5998;42.676;23.268;2022-09-16T06:08:33;10.70;;;3.17;;
11877;SDS011;5998;42.676;23.268;2022-09-16T06:11:03;7.50;;;2.40;;
11877;SDS011;5998;42.676;23.268;2022-09-16T06:13:31;7.50;;;2.97;;
11877;SDS011;5998;42.676;23.268;2022-09-16T06:15:58;9.70;;;2.67;;
11877;SDS011;5998;42.676;23.268;2022-09-16T06:18:26;7.90;;;3.27;;
11877;SDS011;5998;42.676;23.268;2022-09-16T06:20:54;7.97;;;2.80;;
11877;SDS011;5998;42.676;23.268;2022-09-16T06:23:22;6.43;;;2.70;;
11877;SDS011;5998;42.676;23.268;2022-09-16T06:25:57;10.27;;;2.97;;
11877;SDS011;5998;42.676;23.268;2022-09-16T06:28:26;8.63;;;2.70;;
11877;SDS011;5998;42.676;23.268;2022-09-16T06:30:59;7.93;;;2.73;;
11877;SDS011;5998;42.676;23.268;2022-09-16T06:33:27;11.10;;;2.63;;
11877;SDS011;5998;42.676;23.268;2022-09-16T06:35:54;7.10;;;2.73;;
11877;SDS011;5998;42.676;23.268;2022-09-16T06:38:21;10.87;;;5.83;;
11877;SDS011;5998;42.676;23.268;2022-09-16T06:40:49;14.37;;;3.40;;
11877;SDS011;5998;42.676;23.268;2022-09-16T06:43:15;7.70;;;2.77;;
11877;SDS011;5998;42.676;23.268;2022-09-16T06:45:44;8.03;;;3.00;;
11877;SDS011;5998;42.676;23.268;2022-09-16T06:48:11;7.17;;;2.70;;
11877;SDS011;5998;42.676;23.268;2022-09-16T06:50:37;10.80;;;2.67;;
11877;SDS011;5998;42.676;23.268;2022-09-16T06:53:04;9.10;;;3.07;;
11877;SDS011;5998;42.676;23.268;2022-09-16T06:55:31;9.93;;;3.00;;
11877;SDS011;5998;42.676;23.268;2022-09-16T06:57:58;9.60;;;2.77;;
11877;SDS011;5998;42.676;23.268;2022-09-16T07:00:25;11.13;;;2.47;;
11877;SDS011;5998;42.676;23.268;2022-09-16T07:02:53;7.63;;;2.77;;
11877;SDS011;5998;42.676;23.268;2022-09-16T07:05:20;12.48;;;2.83;;
11877;SDS011;5998;42.676;23.268;2022-09-16T07:07:46;11.27;;;2.90;;
11877;SDS011;5998;42.676;23.268;2022-09-16T07:10:13;9.15;;;2.90;;
11877;SDS011;5998;42.676;23.268;2022-09-16T07:12:40;5.38;;;2.42;;
11877;SDS011;5998;42.676;23.268;2022-09-16T07:15:07;7.10;;;2.45;;
11877;SDS011;5998;42.676;23.268;2022-09-16T07:17:34;7.60;;;2.47;;
11877;SDS011;5998;42.676;23.268;2022-09-16T07:20:02;12.32;;;3.38;;
11877;SDS011;5998;42.676;23.268;2022-09-16T07:22:30;7.35;;;2.97;;
11877;SDS011;5998;42.676;23.268;2022-09-16T07:24:57;7.13;;;2.97;;
11877;SDS011;5998;42.676;23.268;2022-09-16T07:27:24;13.32;;;2.88;;
11877;SDS011;5998;42.676;23.268;2022-09-16T07:29:50;9.98;;;2.83;;
11877;SDS011;5998;42.676;23.268;2022-09-16T07:32:18;7.53;;;2.80;;
11877;SDS011;5998;42.676;23.268;2022-09-16T07:34:45;7.75;;;3.17;;
11877;SDS011;5998;42.676;23.268;2022-09-16T07:37:13;7.50;;;2.85;;
11877;SDS011;5998;42.676;23.268;2022-09-16T07:39:42;9.85;;;2.80;;
11877;SDS011;5998;42.676;23.268;2022-09-16T07:42:08;10.48;;;3.13;;
11877;SDS011;5998;42.676;23.268;2022-09-16T07:44:35;6.47;;;3.60;;
11877;SDS011;5998;42.676;23.268;2022-09-16T07:47:02;10.10;;;2.72;;
11877;SDS011;5998;42.676;23.268;2022-09-16T07:49:29;11.88;;;3.38;;
11877;SDS011;5998;42.676;23.268;2022-09-16T07:51:55;12.25;;;2.92;;
11877;SDS011;5998;42.676;23.268;2022-09-16T07:54:24;6.45;;;3.05;;
11877;SDS011;5998;42.676;23.268;2022-09-16T07:56:50;11.43;;;3.33;;
11877;SDS011;5998;42.676;23.268;2022-09-16T07:59:17;9.10;;;3.20;;
11877;SDS011;5998;42.676;23.268;2022-09-16T08:01:45;8.48;;;3.10;;
11877;SDS011;5998;42.676;23.268;2022-09-16T08:04:12;11.18;;;2.90;;
11877;SDS011;5998;42.676;23.268;2022-09-16T08:06:39;10.63;;;3.00;;
11877;SDS011;5998;42.676;23.268;2022-09-16T08:09:06;10.38;;;2.90;;
11877;SDS011;5998;42.676;23.268;2022-09-16T08:11:34;9.65;;;2.95;;
11877;SDS011;5998;42.676;23.268;2022-09-16T08:14:02;12.27;;;2.85;;
11877;SDS011;5998;42.676;23.268;2022-09-16T08:16:29;6.85;;;3.15;;
11877;SDS011;5998;42.676;23.268;2022-09-16T08:18:56;13.52;;;3.40;;
11877;SDS011;5998;42.676;23.268;2022-09-16T08:21:25;9.15;;;3.10;;
11877;SDS011;5998;42.676;23.268;2022-09-16T08:23:53;7.60;;;2.85;;
11877;SDS011;5998;42.676;23.268;2022-09-16T08:26:20;14.43;;;3.80;;
11877;SDS011;5998;42.676;23.268;2022-09-16T08:28:49;12.35;;;3.00;;
11877;SDS011;5998;42.676;23.268;2022-09-16T08:31:16;7.25;;;2.60;;
11877;SDS011;5998;42.676;23.268;2022-09-16T08:33:44;6.18;;;2.97;;
11877;SDS011;5998;42.676;23.268;2022-09-16T08:36:12;10.70;;;2.80;;
11877;SDS011;5998;42.676;23.268;2022-09-16T08:38:42;9.32;;;3.00;;
11877;SDS011;5998;42.676;23.268;2022-09-16T08:41:22;8.30;;;2.90;;
11877;SDS011;5998;42.676;23.268;2022-09-16T08:44:03;12.88;;;3.10;;
11877;SDS011;5998;42.676;23.268;2022-09-16T08:46:39;13.50;;;3.53;;
11877;SDS011;5998;42.676;23.268;2022-09-16T08:49:16;8.73;;;3.00;;
11877;SDS011;5998;42.676;23.268;2022-09-16T08:51:46;10.65;;;3.30;;
11877;SDS011;5998;42.676;23.268;2022-09-16T08:54:17;9.95;;;3.15;;
11877;SDS011;5998;42.676;23.268;2022-09-16T08:56:52;11.75;;;3.50;;
11877;SDS011;5998;42.676;23.268;2022-09-16T08:59:22;10.07;;;3.40;;
11877;SDS011;5998;42.676;23.268;2022-09-16T09:01:54;9.90;;;3.13;;
11877;SDS011;5998;42.676;23.268;2022-09-16T09:04:28;7.22;;;2.97;;
11877;SDS011;5998;42.676;23.268;2022-09-16T09:07:00;12.20;;;3.65;;
11877;SDS011;5998;42.676;23.268;2022-09-16T09:09:39;8.35;;;3.20;;
11877;SDS011;5998;42.676;23.268;2022-09-16T09:12:16;11.50;;;3.40;;
11877;SDS011;5998;42.676;23.268;2022-09-16T09:14:56;10.60;;;3.47;;
11877;SDS011;5998;42.676;23.268;2022-09-16T09:17:34;13.70;;;3.90;;
11877;SDS011;5998;42.676;23.268;2022-09-16T09:20:09;10.13;;;3.50;;
11877;SDS011;5998;42.676;23.268;2022-09-16T09:22:50;8.30;;;3.75;;
11877;SDS011;5998;42.676;23.268;2022-09-16T09:25:34;13.10;;;3.67;;
11877;SDS011;5998;42.676;23.268;2022-09-16T09:31:09;10.13;;;3.30;;
11877;SDS011;5998;42.676;23.268;2022-09-16T09:33:42;12.15;;;3.28;;
11877;SDS011;5998;42.676;23.268;2022-09-16T09:39:22;9.20;;;3.47;;
11877;SDS011;5998;42.676;23.268;2022-09-16T09:41:58;10.83;;;3.47;;
11877;SDS011;5998;42.676;23.268;2022-09-16T09:44:40;8.60;;;3.20;;
11877;SDS011;5998;42.676;23.268;2022-09-16T09:47:15;12.53;;;3.70;;
11877;SDS011;5998;42.676;23.268;2022-09-16T09:49:47;8.87;;;3.30;;
11877;SDS011;5998;42.676;23.268;2022-09-16T09:52:18;7.83;;;3.13;;
11877;SDS011;5998;42.676;23.268;2022-09-16T09:54:51;12.10;;;3.40;;
11877;SDS011;5998;42.676;23.268;2022-09-16T09:57:23;8.83;;;3.10;;
11877;SDS011;5998;42.676;23.268;2022-09-16T09:59:57;13.07;;;3.33;;
11877;SDS011;5998;42.676;23.268;2022-09-16T10:02:31;11.27;;;3.40;;
11877;SDS011;5998;42.676;23.268;2022-09-16T10:04:58;11.07;;;3.23;;
11877;SDS011;5998;42.676;23.268;2022-09-16T10:07:26;9.20;;;3.50;;
11877;SDS011;5998;42.676;23.268;2022-09-16T10:09:54;13.27;;;3.90;;
11877;SDS011;5998;42.676;23.268;2022-09-16T10:12:29;11.23;;;3.83;;
11877;SDS011;5998;42.676;23.268;2022-09-16T10:14:57;16.03;;;4.20;;
11877;SDS011;5998;42.676;23.268;2022-09-16T10:17:24;14.80;;;5.23;;
11877;SDS011;5998;42.676;23.268;2022-09-16T10:19:55;9.50;;;4.07;;
11877;SDS011;5998;42.676;23.268;2022-09-16T10:22:24;15.80;;;3.33;;
11877;SDS011;5998;42.676;23.268;2022-09-16T10:24:54;13.40;;;3.30;;
11877;SDS011;5998;42.676;23.268;2022-09-16T10:27:22;11.90;;;3.17;;
11877;SDS011;5998;42.676;23.268;2022-09-16T10:30:02;10.00;;;2.97;;
11877;SDS011;5998;42.676;23.268;2022-09-16T10:32:30;7.07;;;2.80;;
11877;SDS011;5998;42.676;23.268;2022-09-16T10:35:07;6.37;;;2.50;;
11877;SDS011;5998;42.676;23.268;2022-09-16T10:37:35;4.10;;;2.17;;
11877;SDS011;5998;42.676;23.268;2022-09-16T10:40:02;5.10;;;2.23;;
11877;SDS011;5998;42.676;23.268;2022-09-16T10:42:31;6.90;;;2.30;;
11877;SDS011;5998;42.676;23.268;2022-09-16T10:45:01;4.43;;;2.00;;
11877;SDS011;5998;42.676;23.268;2022-09-16T10:47:30;4.37;;;2.20;;
11877;SDS011;5998;42.676;23.268;2022-09-16T10:50:00;6.83;;;2.10;;
11877;SDS011;5998;42.676;23.268;2022-09-16T10:52:39;4.70;;;2.03;;
11877;SDS011;5998;42.676;23.268;2022-09-16T10:55:16;5.60;;;1.53;;
11877;SDS011;5998;42.676;23.268;2022-09-16T10:57:47;5.87;;;1.73;;
11877;SDS011;5998;42.676;23.268;2022-09-16T11:00:14;2.17;;;1.30;;
11877;SDS011;5998;42.676;23.268;2022-09-16T11:02:54;4.77;;;1.63;;
11877;SDS011;5998;42.676;23.268;2022-09-16T11:05:38;3.27;;;1.80;;
11877;SDS011;5998;42.676;23.268;2022-09-16T11:08:13;6.70;;;1.90;;
11877;SDS011;5998;42.676;23.268;2022-09-16T11:10:52;4.73;;;2.10;;
11877;SDS011;5998;42.676;23.268;2022-09-16T11:13:30;3.90;;;2.03;;
11877;SDS011;5998;42.676;23.268;2022-09-16T11:16:22;4.07;;;2.10;;
11877;SDS011;5998;42.676;23.268;2022-09-16T11:19:11;3.13;;;1.80;;
11877;SDS011;5998;42.676;23.268;2022-09-16T11:22:02;6.40;;;2.10;;
11877;SDS011;5998;42.676;23.268;2022-09-16T11:24:41;3.67;;;1.70;;
11877;SDS011;5998;42.676;23.268;2022-09-16T11:27:16;4.23;;;1.70;;
11877;SDS011;5998;42.676;23.268;2022-09-16T11:30:01;2.03;;;1.40;;
11877;SDS011;5998;42.676;23.268;2022-09-16T11:35:32;2.40;;;1.40;;
11877;SDS011;5998;42.676;23.268;2022-09-16T11:38:11;3.63;;;1.50;;
11877;SDS011;5998;42.676;23.268;2022-09-16T11:40:48;2.90;;;1.40;;
11877;SDS011;5998;42.676;23.268;2022-09-16T11:43:32;2.77;;;1.80;;
11877;SDS011;5998;42.676;23.268;2022-09-16T11:46:15;5.53;;;1.60;;
11877;SDS011;5998;42.676;23.268;2022-09-16T11:48:52;2.57;;;1.10;;
11877;SDS011;5998;42.676;23.268;2022-09-16T11:51:34;2.30;;;1.13;;
11877;SDS011;5998;42.676;23.268;2022-09-16T11:54:19;1.93;;;1.10;;
11877;SDS011;5998;42.676;23.268;2022-09-16T11:56:59;1.97;;;1.20;;
11877;SDS011;5998;42.676;23.268;2022-09-16T11:59:29;2.47;;;1.20;;
11877;SDS011;5998;42.676;23.268;2022-09-16T12:02:07;2.03;;;1.20;;
11877;SDS011;5998;42.676;23.268;2022-09-16T12:04:40;1.70;;;1.10;;
11877;SDS011;5998;42.676;23.268;2022-09-16T12:07:13;2.53;;;1.60;;
11877;SDS011;5998;42.676;23.268;2022-09-16T12:09:45;1.93;;;1.10;;
11877;SDS011;5998;42.676;23.268;2022-09-16T12:12:18;4.20;;;2.23;;
11877;SDS011;5998;42.676;23.268;2022-09-16T12:14:49;5.53;;;1.90;;
11877;SDS011;5998;42.676;23.268;2022-09-16T12:17:19;3.77;;;1.83;;
11877;SDS011;5998;42.676;23.268;2022-09-16T12:19:49;5.13;;;2.20;;
11877;SDS011;5998;42.676;23.268;2022-09-16T12:22:23;5.90;;;2.33;;
11877;SDS011;5998;42.676;23.268;2022-09-16T12:24:56;4.50;;;2.23;;
11877;SDS011;5998;42.676;23.268;2022-09-16T12:27:40;4.73;;;2.33;;
11877;SDS011;5998;42.676;23.268;2022-09-16T12:30:13;5.10;;;2.27;;
11877;SDS011;5998;42.676;23.268;2022-09-16T12:32:45;3.60;;;2.00;;
11877;SDS011;5998;42.676;23.268;2022-09-16T12:35:19;3.03;;;1.80;;
11877;SDS011;5998;42.676;23.268;2022-09-16T12:37:50;4.17;;;1.80;;
11877;SDS011;5998;42.676;23.268;2022-09-16T12:40:19;2.87;;;1.80;;
11877;SDS011;5998;42.676;23.268;2022-09-16T12:45:49;3.33;;;2.07;;
11877;SDS011;5998;42.676;23.268;2022-09-16T12:48:44;5.87;;;1.80;;
11877;SDS011;5998;42.676;23.268;2022-09-16T12:51:47;4.43;;;1.60;;
11877;SDS011;5998;42.676;23.268;2022-09-16T12:54:40;4.30;;;1.70;;
11877;SDS011;5998;42.676;23.268;2022-09-16T12:57:29;4.57;;;2.33;;
11877;SDS011;5998;42.676;23.268;2022-09-16T13:00:12;4.83;;;1.97;;
11877;SDS011;5998;42.676;23.268;2022-09-16T13:02:43;2.07;;;1.60;;
11877;SDS011;5998;42.676;23.268;2022-09-16T13:05:16;3.00;;;1.60;;
11877;SDS011;5998;42.676;23.268;2022-09-16T13:07:48;7.33;;;2.13;;
11877;SDS011;5998;42.676;23.268;2022-09-16T13:10:18;4.33;;;1.73;;
11877;SDS011;5998;42.676;23.268;2022-09-16T13:12:50;6.73;;;1.50;;
11877;SDS011;5998;42.676;23.268;2022-09-16T13:15:25;2.73;;;1.20;;
11877;SDS011;5998;42.676;23.268;2022-09-16T13:17:54;2.27;;;1.03;;
11877;SDS011;5998;42.676;23.268;2022-09-16T13:20:22;2.40;;;1.00;;
11877;SDS011;5998;42.676;23.268;2022-09-16T13:22:59;1.63;;;1.13;;
11877;SDS011;5998;42.676;23.268;2022-09-16T13:25:31;1.70;;;0.90;;
11877;SDS011;5998;42.676;23.268;2022-09-16T13:28:01;3.17;;;2.73;;
11877;SDS011;5998;42.676;23.268;2022-09-16T13:30:32;3.23;;;1.40;;
11877;SDS011;5998;42.676;23.268;2022-09-16T13:36:10;4.97;;;1.83;;
11877;SDS011;5998;42.676;23.268;2022-09-16T13:38:43;3.20;;;1.50;;
11877;SDS011;5998;42.676;23.268;2022-09-16T13:41:12;1.27;;;1.20;;
11877;SDS011;5998;42.676;23.268;2022-09-16T13:43:49;2.00;;;1.63;;
11877;SDS011;5998;42.676;23.268;2022-09-16T13:46:26;3.27;;;2.23;;
11877;SDS011;5998;42.676;23.268;2022-09-16T13:48:56;4.03;;;1.70;;
11877;SDS011;5998;42.676;23.268;2022-09-16T13:51:31;3.70;;;1.67;;
11877;SDS011;5998;42.676;23.268;2022-09-16T13:54:03;3.90;;;2.30;;
11877;SDS011;5998;42.676;23.268;2022-09-16T13:56:46;2.53;;;1.80;;
11877;SDS011;5998;42.676;23.268;2022-09-16T13:59:28;2.60;;;1.77;;
11877;SDS011;5998;42.676;23.268;2022-09-16T14:02:08;3.47;;;2.00;;
11877;SDS011;5998;42.676;23.268;2022-09-16T14:04:47;3.50;;;1.60;;
11877;SDS011;5998;42.676;23.268;2022-09-16T14:07:29;4.70;;;1.97;;
11877;SDS011;5998;42.676;23.268;2022-09-16T14:10:08;3.90;;;1.70;;
11877;SDS011;5998;42.676;23.268;2022-09-16T14:12:41;2.50;;;1.50;;
11877;SDS011;5998;42.676;23.268;2022-09-16T14:15:13;4.87;;;2.03;;
11877;SDS011;5998;42.676;23.268;2022-09-16T14:17:43;2.00;;;1.73;;
11877;SDS011;5998;42.676;23.268;2022-09-16T14:20:14;3.50;;;1.80;;
11877;SDS011;5998;42.676;23.268;2022-09-16T14:22:43;5.93;;;1.90;;
11877;SDS011;5998;42.676;23.268;2022-09-16T14:25:23;2.87;;;1.70;;
11877;SDS011;5998;42.676;23.268;2022-09-16T14:27:51;3.30;;;1.60;;
11877;SDS011;5998;42.676;23.268;2022-09-16T14:30:18;2.27;;;1.60;;
11877;SDS011;5998;42.676;23.268;2022-09-16T14:32:46;2.20;;;1.80;;
11877;SDS011;5998;42.676;23.268;2022-09-16T14:35:16;3.13;;;1.70;;
11877;SDS011;5998;42.676;23.268;2022-09-16T14:37:46;3.17;;;1.77;;
11877;SDS011;5998;42.676;23.268;2022-09-16T14:40:17;5.10;;;1.90;;
11877;SDS011;5998;42.676;23.268;2022-09-16T14:42:47;4.63;;;1.90;;
11877;SDS011;5998;42.676;23.268;2022-09-16T14:45:16;5.00;;;1.90;;
11877;SDS011;5998;42.676;23.268;2022-09-16T14:47:44;5.90;;;1.90;;
11877;SDS011;5998;42.676;23.268;2022-09-16T14:50:14;2.87;;;1.60;;
11877;SDS011;5998;42.676;23.268;2022-09-16T14:52:51;6.33;;;1.73;;
11877;SDS011;5998;42.676;23.268;2022-09-16T14:55:20;3.90;;;1.80;;
11877;SDS011;5998;42.676;23.268;2022-09-16T14:57:49;4.53;;;1.80;;
11877;SDS011;5998;42.676;23.268;2022-09-16T15:00:16;2.83;;;1.63;;
11877;SDS011;5998;42.676;23.268;2022-09-16T15:02:45;2.70;;;2.00;;
11877;SDS011;5998;42.676;23.268;2022-09-16T15:05:19;4.13;;;1.87;;
11877;SDS011;5998;42.676;23.268;2022-09-16T15:07:49;2.50;;;1.77;;
11877;SDS011;5998;42.676;23.268;2022-09-16T15:10:20;4.10;;;1.60;;
11877;SDS011;5998;42.676;23.268;2022-09-16T15:12:49;5.40;;;2.17;;
11877;SDS011;5998;42.676;23.268;2022-09-16T15:15:19;5.40;;;2.23;;
11877;SDS011;5998;42.676;23.268;2022-09-16T15:17:50;4.37;;;1.93;;
11877;SDS011;5998;42.676;23.268;2022-09-16T15:20:22;3.50;;;1.80;;
11877;SDS011;5998;42.676;23.268;2022-09-16T15:22:51;4.47;;;1.93;;
11877;SDS011;5998;42.676;23.268;2022-09-16T15:25:19;2.73;;;1.80;;
11877;SDS011;5998;42.676;23.268;2022-09-16T15:27:48;2.83;;;1.90;;